sensor_id;sensor_type;location;lat;lon;timestamp;temperature;humidity
5027;DHT22;2532;52.480;13.354;2023-07-20T04:02:21;18.00;99.90
5027;DHT22;2532;52.480;13.354;2023-07-20T04:04:48;18.10;99.90
5027;DHT22;2532;52.480;13.354;2023-07-20T04:07:15;18.00;99.90
5027;DHT22;2532;52.480;13.354;2023-07-20T04:09:42;18.00;99.90
5027;DHT22;2532;52.480;13.354;2023-07-20T04:12:09;18.00;99.90
5027;DHT22;2532;52.480;13.354;2023-07-20T04:14:36;18.10;99.90
5027;DHT22;2532;52.480;13.354;2023-07-20T04:17:03;18.10;99.90
5027;DHT22;2532;52.480;13.354;2023-07-20T04:19:32;18.10;99.90
5027;DHT22;2532;52.480;13.354;2023-07-20T04:21:58;18.10;99.90
5027;DHT22;2532;52.480;13.354;2023-07-20T04:24:25;18.10;99.90
5027;DHT22;2532;52.480;13.354;2023-07-20T04:26:52;18.10;99.90
5027;DHT22;2532;52.480;13.354;2023-07-20T04:29:19;18.10;99.90
5027;DHT22;2532;52.480;13.354;2023-07-20T04:31:46;18.00;99.90
5027;DHT22;2532;52.480;13.354;2023-07-20T04:34:13;18.00;99.90
5027;DHT22;2532;52.480;13.354;2023-07-20T04:36:41;18.00;99.90
5027;DHT22;2532;52.480;13.354;2023-07-20T04:39:09;18.00;99.90
5027;DHT22;2532;52.480;13.354;2023-07-20T04:41:36;18.00;99.90
5027;DHT22;2532;52.480;13.354;2023-07-20T04:44:04;17.90;99.90
5027;DHT22;2532;52.480;13.354;2023-07-20T04:46:30;18.00;99.90
5027;DHT22;2532;52.480;13.354;2023-07-20T04:48:57;18.00;99.90
5027;DHT22;2532;52.480;13.354;2023-07-20T04:51:24;18.00;99.90
5027;DHT22;2532;52.480;13.354;2023-07-20T04:53:53;18.00;99.90
5027;DHT22;2532;52.480;13.354;2023-07-20T04:56:19;18.10;99.90
5027;DHT22;2532;52.480;13.354;2023-07-20T04:58:48;18.10;99.90
5027;DHT22;2532;52.480;13.354;2023-07-20T05:01:15;18.10;99.90
5027;DHT22;2532;52.480;13.354;2023-07-20T05:03:42;18.10;99.90
5027;DHT22;2532;52.480;13.354;2023-07-20T05:06:12;18.10;99.90
5027;DHT22;2532;52.480;13.354;2023-07-20T05:08:39;18.10;99.90
5027;DHT22;2532;52.480;13.354;2023-07-20T05:11:07;18.10;99.90
5027;DHT22;2532;52.480;13.354;2023-07-20T05:13:34;18.20;99.90
5027;DHT22;2532;52.480;13.354;2023-07-20T05:16:01;18.20;99.90
5027;DHT22;2532;52.480;13.354;2023-07-20T05:18:28;18.20;99.90
5027;DHT22;2532;52.480;13.354;2023-07-20T05:20:55;18.20;99.90
5027;DHT22;2532;52.480;13.354;2023-07-20T05:23:22;18.20;99.90
5027;DHT22;2532;52.480;13.354;2023-07-20T05:25:54;18.30;99.90
5027;DHT22;2532;52.480;13.354;2023-07-20T05:28:22;18.30;99.90
5027;DHT22;2532;52.480;13.354;2023-07-20T05:30:50;18.40;99.90
5027;DHT22;2532;52.480;13.354;2023-07-20T05:33:18;18.40;99.90
5027;DHT22;2532;52.480;13.354;2023-07-20T05:35:45;18.40;99.90
5027;DHT22;2532;52.480;13.354;2023-07-20T05:38:12;18.50;99.90
5027;DHT22;2532;52.480;13.354;2023-07-20T05:40:40;18.50;99.90
5027;DHT22;2532;52.480;13.354;2023-07-20T05:43:07;18.50;99.90
5027;DHT22;2532;52.480;13.354;2023-07-20T05:45:36;18.50;99.90
5027;DHT22;2532;52.480;13.354;2023-07-20T05:48:03;18.50;99.90
5027;DHT22;2532;52.480;13.354;2023-07-20T05:50:30;18.60;99.90
5027;DHT22;2532;52.480;13.354;2023-07-20T05:52:57;18.50;99.90
5027;DHT22;2532;52.480;13.354;2023-07-20T05:55:24;18.50;99.90
5027;DHT22;2532;52.480;13.354;2023-07-20T05:57:51;18.50;99.90
5027;DHT22;2532;52.480;13.354;2023-07-20T06:00:20;18.50;99.90
5027;DHT22;2532;52.480;13.354;2023-07-20T06:02:53;18.50;99.90
5027;DHT22;2532;52.480;13.354;2023-07-20T06:05:21;18.50;99.90
5027;DHT22;2532;52.480;13.354;2023-07-20T06:07:49;18.50;99.90
5027;DHT22;2532;52.480;13.354;2023-07-20T06:10:16;18.50;99.90
5027;DHT22;2532;52.480;13.354;2023-07-20T06:12:43;18.50;99.90
5027;DHT22;2532;52.480;13.354;2023-07-20T06:15:25;18.50;99.90
5027;DHT22;2532;52.480;13.354;2023-07-20T06:17:54;18.50;99.90
5027;DHT22;2532;52.480;13.354;2023-07-20T06:20:22;18.50;99.90
5027;DHT22;2532;52.480;13.354;2023-07-20T06:22:48;18.60;99.90
5027;DHT22;2532;52.480;13.354;2023-07-20T06:25:15;18.60;99.90
5027;DHT22;2532;52.480;13.354;2023-07-20T06:27:43;18.60;99.90
5027;DHT22;2532;52.480;13.354;2023-07-20T06:30:10;18.60;99.90
5027;DHT22;2532;52.480;13.354;2023-07-20T06:32:37;18.60;99.90
5027;DHT22;2532;52.480;13.354;2023-07-20T06:35:07;18.60;99.90
5027;DHT22;2532;52.480;13.354;2023-07-20T06:37:34;18.60;99.90
5027;DHT22;2532;52.480;13.354;2023-07-20T06:40:02;18.60;99.90
5027;DHT22;2532;52.480;13.354;2023-07-20T06:42:30;18.50;99.90
5027;DHT22;2532;52.480;13.354;2023-07-20T06:44:57;18.50;99.90
5027;DHT22;2532;52.480;13.354;2023-07-20T06:47:24;18.50;99.90
5027;DHT22;2532;52.480;13.354;2023-07-20T06:49:51;18.50;99.90
5027;DHT22;2532;52.480;13.354;2023-07-20T06:52:20;18.50;99.80
5027;DHT22;2532;52.480;13.354;2023-07-20T06:54:47;18.50;99.70
5027;DHT22;2532;52.480;13.354;2023-07-20T06:57:15;18.60;99.60
5027;DHT22;2532;52.480;13.354;2023-07-20T06:59:42;18.60;99.30
5027;DHT22;2532;52.480;13.354;2023-07-20T07:02:09;18.70;99.20
5027;DHT22;2532;52.480;13.354;2023-07-20T07:04:36;18.80;98.80
5027;DHT22;2532;52.480;13.354;2023-07-20T07:07:03;18.80;98.90
5027;DHT22;2532;52.480;13.354;2023-07-20T07:09:32;18.90;98.60
5027;DHT22;2532;52.480;13.354;2023-07-20T07:11:58;18.90;98.60
5027;DHT22;2532;52.480;13.354;2023-07-20T07:14:25;19.00;98.70
5027;DHT22;2532;52.480;13.354;2023-07-20T07:16:52;19.00;98.60
5027;DHT22;2532;52.480;13.354;2023-07-20T07:19:19;19.10;98.80
5027;DHT22;2532;52.480;13.354;2023-07-20T07:21:46;19.20;98.60
5027;DHT22;2532;52.480;13.354;2023-07-20T07:24:13;19.30;98.80
5027;DHT22;2532;52.480;13.354;2023-07-20T07:26:41;19.30;98.70
5027;DHT22;2532;52.480;13.354;2023-07-20T07:29:08;19.40;98.20
5027;DHT22;2532;52.480;13.354;2023-07-20T07:31:35;19.50;97.90
5027;DHT22;2532;52.480;13.354;2023-07-20T07:34:02;19.50;97.80
5027;DHT22;2532;52.480;13.354;2023-07-20T07:36:30;19.60;97.90
5027;DHT22;2532;52.480;13.354;2023-07-20T07:38:57;19.70;97.30
5027;DHT22;2532;52.480;13.354;2023-07-20T07:41:24;19.80;97.00
5027;DHT22;2532;52.480;13.354;2023-07-20T07:43:52;19.80;96.60
5027;DHT22;2532;52.480;13.354;2023-07-20T07:46:19;19.90;96.10
5027;DHT22;2532;52.480;13.354;2023-07-20T07:48:46;19.90;95.80
5027;DHT22;2532;52.480;13.354;2023-07-20T07:51:13;20.10;95.30
5027;DHT22;2532;52.480;13.354;2023-07-20T07:53:41;20.10;95.50
5027;DHT22;2532;52.480;13.354;2023-07-20T07:56:09;20.20;95.50
5027;DHT22;2532;52.480;13.354;2023-07-20T07:58:36;20.30;95.30
5027;DHT22;2532;52.480;13.354;2023-07-20T08:01:04;20.30;95.20
5027;DHT22;2532;52.480;13.354;2023-07-20T08:03:31;20.40;95.20
5027;DHT22;2532;52.480;13.354;2023-07-20T08:05:58;20.50;95.20
5027;DHT22;2532;52.480;13.354;2023-07-20T08:08:25;20.60;95.30
5027;DHT22;2532;52.480;13.354;2023-07-20T08:10:53;20.60;95.10
5027;DHT22;2532;52.480;13.354;2023-07-20T08:13:20;20.70;95.20
5027;DHT22;2532;52.480;13.354;2023-07-20T08:15:50;20.70;94.60
5027;DHT22;2532;52.480;13.354;2023-07-20T08:18:18;20.70;94.40
5027;DHT22;2532;52.480;13.354;2023-07-20T08:20:46;20.80;93.70
5027;DHT22;2532;52.480;13.354;2023-07-20T08:23:13;20.70;93.30
5027;DHT22;2532;52.480;13.354;2023-07-20T08:25:40;20.70;93.00
5027;DHT22;2532;52.480;13.354;2023-07-20T08:28:09;20.50;93.00
5027;DHT22;2532;52.480;13.354;2023-07-20T08:30:40;20.50;93.30
5027;DHT22;2532;52.480;13.354;2023-07-20T08:33:10;20.50;93.50
5027;DHT22;2532;52.480;13.354;2023-07-20T08:35:39;20.60;93.50
5027;DHT22;2532;52.480;13.354;2023-07-20T08:38:06;20.70;93.10
5027;DHT22;2532;52.480;13.354;2023-07-20T08:40:34;20.70;93.10
5027;DHT22;2532;52.480;13.354;2023-07-20T08:43:05;20.80;93.20
5027;DHT22;2532;52.480;13.354;2023-07-20T08:45:33;20.90;93.00
5027;DHT22;2532;52.480;13.354;2023-07-20T08:48:03;20.80;93.10
5027;DHT22;2532;52.480;13.354;2023-07-20T08:50:32;20.80;93.20
5027;DHT22;2532;52.480;13.354;2023-07-20T08:53:01;20.80;93.10
5027;DHT22;2532;52.480;13.354;2023-07-20T08:55:29;20.90;92.70
5027;DHT22;2532;52.480;13.354;2023-07-20T08:57:58;20.90;92.90
5027;DHT22;2532;52.480;13.354;2023-07-20T09:00:25;20.90;92.80
5027;DHT22;2532;52.480;13.354;2023-07-20T09:02:54;20.90;92.20
5027;DHT22;2532;52.480;13.354;2023-07-20T09:05:22;21.00;92.30
5027;DHT22;2532;52.480;13.354;2023-07-20T09:07:51;21.10;92.40
5027;DHT22;2532;52.480;13.354;2023-07-20T09:10:20;21.20;92.00
5027;DHT22;2532;52.480;13.354;2023-07-20T09:12:47;21.20;91.70
5027;DHT22;2532;52.480;13.354;2023-07-20T09:15:14;21.30;91.50
5027;DHT22;2532;52.480;13.354;2023-07-20T09:17:45;21.30;91.70
5027;DHT22;2532;52.480;13.354;2023-07-20T09:20:14;21.30;91.00
5027;DHT22;2532;52.480;13.354;2023-07-20T09:22:42;21.30;91.30
5027;DHT22;2532;52.480;13.354;2023-07-20T09:25:11;21.40;91.60
5027;DHT22;2532;52.480;13.354;2023-07-20T09:27:45;21.50;91.20
5027;DHT22;2532;52.480;13.354;2023-07-20T09:30:13;21.60;90.80
5027;DHT22;2532;52.480;13.354;2023-07-20T09:32:42;21.60;90.80
5027;DHT22;2532;52.480;13.354;2023-07-20T09:35:13;21.60;91.10
5027;DHT22;2532;52.480;13.354;2023-07-20T09:37:48;21.80;90.70
5027;DHT22;2532;52.480;13.354;2023-07-20T09:40:18;21.90;90.30
5027;DHT22;2532;52.480;13.354;2023-07-20T09:42:47;22.00;90.50
5027;DHT22;2532;52.480;13.354;2023-07-20T09:45:14;22.00;90.20
5027;DHT22;2532;52.480;13.354;2023-07-20T09:47:41;22.00;90.10
5027;DHT22;2532;52.480;13.354;2023-07-20T09:50:08;22.00;89.10
5027;DHT22;2532;52.480;13.354;2023-07-20T09:52:41;21.90;88.70
5027;DHT22;2532;52.480;13.354;2023-07-20T09:55:10;21.70;89.30
5027;DHT22;2532;52.480;13.354;2023-07-20T09:57:38;21.70;89.80
5027;DHT22;2532;52.480;13.354;2023-07-20T10:00:08;21.60;89.80
5027;DHT22;2532;52.480;13.354;2023-07-20T10:02:42;21.50;89.70
5027;DHT22;2532;52.480;13.354;2023-07-20T10:05:14;21.30;90.40
5027;DHT22;2532;52.480;13.354;2023-07-20T10:07:44;21.20;90.80
5027;DHT22;2532;52.480;13.354;2023-07-20T10:10:15;21.10;91.10
5027;DHT22;2532;52.480;13.354;2023-07-20T10:12:45;21.00;91.20
5027;DHT22;2532;52.480;13.354;2023-07-20T10:15:20;20.90;91.70
5027;DHT22;2532;52.480;13.354;2023-07-20T10:18:11;20.90;91.50
5027;DHT22;2532;52.480;13.354;2023-07-20T10:20:40;20.90;91.60
5027;DHT22;2532;52.480;13.354;2023-07-20T10:23:08;20.90;91.70
5027;DHT22;2532;52.480;13.354;2023-07-20T10:25:35;20.90;91.90
5027;DHT22;2532;52.480;13.354;2023-07-20T10:28:04;20.90;92.30
5027;DHT22;2532;52.480;13.354;2023-07-20T10:30:33;20.80;92.60
5027;DHT22;2532;52.480;13.354;2023-07-20T10:33:01;20.90;92.60
5027;DHT22;2532;52.480;13.354;2023-07-20T10:35:29;20.80;92.60
5027;DHT22;2532;52.480;13.354;2023-07-20T10:38:01;20.90;92.50
5027;DHT22;2532;52.480;13.354;2023-07-20T10:40:29;20.90;92.50
5027;DHT22;2532;52.480;13.354;2023-07-20T10:43:02;20.90;92.20
5027;DHT22;2532;52.480;13.354;2023-07-20T10:45:52;20.90;92.30
5027;DHT22;2532;52.480;13.354;2023-07-20T10:48:20;20.90;92.50
5027;DHT22;2532;52.480;13.354;2023-07-20T10:51:09;20.90;92.70
5027;DHT22;2532;52.480;13.354;2023-07-20T10:53:35;20.90;92.50
5027;DHT22;2532;52.480;13.354;2023-07-20T10:56:07;20.90;92.80
5027;DHT22;2532;52.480;13.354;2023-07-20T10:58:34;20.80;93.10
5027;DHT22;2532;52.480;13.354;2023-07-20T11:01:03;20.80;93.30
5027;DHT22;2532;52.480;13.354;2023-07-20T11:03:33;20.90;93.30
5027;DHT22;2532;52.480;13.354;2023-07-20T11:06:30;20.90;93.40
5027;DHT22;2532;52.480;13.354;2023-07-20T11:09:07;20.90;93.40
5027;DHT22;2532;52.480;13.354;2023-07-20T11:11:37;21.00;93.40
5027;DHT22;2532;52.480;13.354;2023-07-20T11:14:06;20.90;93.20
5027;DHT22;2532;52.480;13.354;2023-07-20T11:16:36;20.90;93.00
5027;DHT22;2532;52.480;13.354;2023-07-20T11:19:06;20.90;92.90
5027;DHT22;2532;52.480;13.354;2023-07-20T11:21:41;20.90;93.20
5027;DHT22;2532;52.480;13.354;2023-07-20T11:24:08;20.90;93.30
5027;DHT22;2532;52.480;13.354;2023-07-20T11:26:46;20.90;93.20
5027;DHT22;2532;52.480;13.354;2023-07-20T11:29:13;20.90;92.80
5027;DHT22;2532;52.480;13.354;2023-07-20T11:31:43;20.90;93.00
5027;DHT22;2532;52.480;13.354;2023-07-20T11:34:12;20.80;93.30
5027;DHT22;2532;52.480;13.354;2023-07-20T11:36:40;20.90;93.60
5027;DHT22;2532;52.480;13.354;2023-07-20T11:39:08;21.00;93.60
5027;DHT22;2532;52.480;13.354;2023-07-20T11:41:36;21.10;93.10
5027;DHT22;2532;52.480;13.354;2023-07-20T11:44:03;21.20;92.90
5027;DHT22;2532;52.480;13.354;2023-07-20T11:46:32;21.40;92.50
5027;DHT22;2532;52.480;13.354;2023-07-20T11:49:00;21.50;92.40
5027;DHT22;2532;52.480;13.354;2023-07-20T11:51:28;21.60;92.00
5027;DHT22;2532;52.480;13.354;2023-07-20T11:53:56;21.80;92.00
5027;DHT22;2532;52.480;13.354;2023-07-20T11:56:24;22.00;91.90
5027;DHT22;2532;52.480;13.354;2023-07-20T11:58:55;22.20;91.80
5027;DHT22;2532;52.480;13.354;2023-07-20T12:01:24;22.30;90.90
5027;DHT22;2532;52.480;13.354;2023-07-20T12:03:55;22.40;89.20
5027;DHT22;2532;52.480;13.354;2023-07-20T12:06:25;22.40;89.60
5027;DHT22;2532;52.480;13.354;2023-07-20T12:08:54;22.30;90.30
5027;DHT22;2532;52.480;13.354;2023-07-20T12:11:32;22.10;90.60
5027;DHT22;2532;52.480;13.354;2023-07-20T12:14:00;21.90;90.30
5027;DHT22;2532;52.480;13.354;2023-07-20T12:16:28;21.90;90.40
5027;DHT22;2532;52.480;13.354;2023-07-20T12:18:59;21.70;90.60
5027;DHT22;2532;52.480;13.354;2023-07-20T12:21:28;21.60;90.70
5027;DHT22;2532;52.480;13.354;2023-07-20T12:23:56;21.50;90.70
5027;DHT22;2532;52.480;13.354;2023-07-20T12:26:24;21.50;91.00
5027;DHT22;2532;52.480;13.354;2023-07-20T12:28:51;21.50;90.80
5027;DHT22;2532;52.480;13.354;2023-07-20T12:31:18;21.40;90.70
5027;DHT22;2532;52.480;13.354;2023-07-20T12:33:46;21.50;90.40
5027;DHT22;2532;52.480;13.354;2023-07-20T12:36:14;21.50;89.70
5027;DHT22;2532;52.480;13.354;2023-07-20T12:38:42;21.50;87.30
5027;DHT22;2532;52.480;13.354;2023-07-20T12:41:10;21.60;87.30
5027;DHT22;2532;52.480;13.354;2023-07-20T12:43:38;21.60;86.40
5027;DHT22;2532;52.480;13.354;2023-07-20T12:46:06;21.70;86.60
5027;DHT22;2532;52.480;13.354;2023-07-20T12:48:33;21.70;85.80
5027;DHT22;2532;52.480;13.354;2023-07-20T12:51:00;21.80;86.70
5027;DHT22;2532;52.480;13.354;2023-07-20T12:53:27;21.80;86.30
5027;DHT22;2532;52.480;13.354;2023-07-20T12:55:55;21.90;84.70
5027;DHT22;2532;52.480;13.354;2023-07-20T12:58:22;22.00;85.20
5027;DHT22;2532;52.480;13.354;2023-07-20T13:00:49;22.10;83.50
5027;DHT22;2532;52.480;13.354;2023-07-20T13:03:16;22.20;79.40
5027;DHT22;2532;52.480;13.354;2023-07-20T13:05:44;22.20;76.30
5027;DHT22;2532;52.480;13.354;2023-07-20T13:08:11;22.30;78.70
5027;DHT22;2532;52.480;13.354;2023-07-20T13:10:39;22.40;77.60
5027;DHT22;2532;52.480;13.354;2023-07-20T13:13:07;22.50;73.30
5027;DHT22;2532;52.480;13.354;2023-07-20T13:15:42;22.60;72.00
5027;DHT22;2532;52.480;13.354;2023-07-20T13:18:09;22.80;71.90
5027;DHT22;2532;52.480;13.354;2023-07-20T13:20:36;23.00;71.30
5027;DHT22;2532;52.480;13.354;2023-07-20T13:23:03;23.20;69.10
5027;DHT22;2532;52.480;13.354;2023-07-20T13:25:30;23.30;67.70
5027;DHT22;2532;52.480;13.354;2023-07-20T13:27:57;23.50;70.20
5027;DHT22;2532;52.480;13.354;2023-07-20T13:30:25;23.70;67.30
5027;DHT22;2532;52.480;13.354;2023-07-20T13:32:52;23.90;67.50
5027;DHT22;2532;52.480;13.354;2023-07-20T13:35:20;24.00;66.50
5027;DHT22;2532;52.480;13.354;2023-07-20T13:37:46;24.10;64.40
5027;DHT22;2532;52.480;13.354;2023-07-20T13:40:15;24.20;64.20
5027;DHT22;2532;52.480;13.354;2023-07-20T13:42:44;24.20;64.30
5027;DHT22;2532;52.480;13.354;2023-07-20T13:45:11;24.40;66.40
5027;DHT22;2532;52.480;13.354;2023-07-20T13:47:39;24.50;64.30
5027;DHT22;2532;52.480;13.354;2023-07-20T13:50:06;24.60;64.00
5027;DHT22;2532;52.480;13.354;2023-07-20T13:52:34;24.70;63.90
5027;DHT22;2532;52.480;13.354;2023-07-20T13:55:02;24.90;62.90
5027;DHT22;2532;52.480;13.354;2023-07-20T13:57:30;25.00;62.10
5027;DHT22;2532;52.480;13.354;2023-07-20T13:59:57;25.20;62.80
5027;DHT22;2532;52.480;13.354;2023-07-20T14:02:25;25.30;61.90
5027;DHT22;2532;52.480;13.354;2023-07-20T14:04:54;25.40;61.90
5027;DHT22;2532;52.480;13.354;2023-07-20T14:07:21;25.50;60.70
5027;DHT22;2532;52.480;13.354;2023-07-20T14:09:49;25.60;61.30
5027;DHT22;2532;52.480;13.354;2023-07-20T14:12:16;25.80;60.70
5027;DHT22;2532;52.480;13.354;2023-07-20T14:14:42;26.00;59.40
5027;DHT22;2532;52.480;13.354;2023-07-20T14:17:09;26.00;58.60
5027;DHT22;2532;52.480;13.354;2023-07-20T14:19:37;26.00;58.80
5027;DHT22;2532;52.480;13.354;2023-07-20T14:22:06;26.00;58.90
5027;DHT22;2532;52.480;13.354;2023-07-20T14:24:33;26.00;58.10
5027;DHT22;2532;52.480;13.354;2023-07-20T14:27:00;25.90;58.10
5027;DHT22;2532;52.480;13.354;2023-07-20T14:29:27;25.90;58.80
5027;DHT22;2532;52.480;13.354;2023-07-20T14:31:57;25.90;58.50
5027;DHT22;2532;52.480;13.354;2023-07-20T14:34:24;26.00;58.00
5027;DHT22;2532;52.480;13.354;2023-07-20T14:36:51;26.10;57.10
5027;DHT22;2532;52.480;13.354;2023-07-20T14:39:19;26.10;56.40
5027;DHT22;2532;52.480;13.354;2023-07-20T14:41:46;26.00;55.20
5027;DHT22;2532;52.480;13.354;2023-07-20T14:44:13;25.90;55.70
5027;DHT22;2532;52.480;13.354;2023-07-20T14:46:40;25.90;56.00
5027;DHT22;2532;52.480;13.354;2023-07-20T14:49:07;26.10;56.40
5027;DHT22;2532;52.480;13.354;2023-07-20T14:51:36;26.20;55.50
5027;DHT22;2532;52.480;13.354;2023-07-20T14:54:08;26.20;55.00
5027;DHT22;2532;52.480;13.354;2023-07-20T14:56:38;26.40;54.70
5027;DHT22;2532;52.480;13.354;2023-07-20T14:59:05;26.50;53.60
5027;DHT22;2532;52.480;13.354;2023-07-20T15:01:32;26.60;53.80
5027;DHT22;2532;52.480;13.354;2023-07-20T15:03:59;26.50;53.20
5027;DHT22;2532;52.480;13.354;2023-07-20T15:06:26;26.50;52.90
5027;DHT22;2532;52.480;13.354;2023-07-20T15:08:56;26.50;53.10
5027;DHT22;2532;52.480;13.354;2023-07-20T15:11:23;26.40;52.90
5027;DHT22;2532;52.480;13.354;2023-07-20T15:13:51;26.30;52.20
5027;DHT22;2532;52.480;13.354;2023-07-20T15:16:19;26.20;52.50
5027;DHT22;2532;52.480;13.354;2023-07-20T15:18:46;26.20;52.90
5027;DHT22;2532;52.480;13.354;2023-07-20T15:21:13;26.10;52.90
5027;DHT22;2532;52.480;13.354;2023-07-20T15:23:40;26.00;52.30
5027;DHT22;2532;52.480;13.354;2023-07-20T15:26:07;25.90;52.20
5027;DHT22;2532;52.480;13.354;2023-07-20T15:28:34;25.80;52.50
5027;DHT22;2532;52.480;13.354;2023-07-20T15:31:03;25.70;52.70
5027;DHT22;2532;52.480;13.354;2023-07-20T15:33:31;25.50;52.60
5027;DHT22;2532;52.480;13.354;2023-07-20T15:35:58;25.40;53.30
5027;DHT22;2532;52.480;13.354;2023-07-20T15:38:25;25.40;53.50
5027;DHT22;2532;52.480;13.354;2023-07-20T15:40:51;25.50;53.10
5027;DHT22;2532;52.480;13.354;2023-07-20T15:43:19;25.60;53.40
5027;DHT22;2532;52.480;13.354;2023-07-20T15:45:47;25.50;53.50
5027;DHT22;2532;52.480;13.354;2023-07-20T15:48:16;25.50;53.70
5027;DHT22;2532;52.480;13.354;2023-07-20T15:50:45;25.60;54.60
5027;DHT22;2532;52.480;13.354;2023-07-20T15:53:12;25.60;54.70
5027;DHT22;2532;52.480;13.354;2023-07-20T15:55:39;25.80;54.60
5027;DHT22;2532;52.480;13.354;2023-07-20T15:58:06;25.70;53.00
5027;DHT22;2532;52.480;13.354;2023-07-20T16:00:33;25.70;53.50
5027;DHT22;2532;52.480;13.354;2023-07-20T16:03:00;25.60;53.20
5027;DHT22;2532;52.480;13.354;2023-07-20T16:05:28;25.70;53.30
5027;DHT22;2532;52.480;13.354;2023-07-20T16:07:55;25.80;53.40
5027;DHT22;2532;52.480;13.354;2023-07-20T16:10:22;26.10;53.20
5027;DHT22;2532;52.480;13.354;2023-07-20T16:12:49;26.10;53.30
5027;DHT22;2532;52.480;13.354;2023-07-20T16:15:16;26.00;53.40
5027;DHT22;2532;52.480;13.354;2023-07-20T16:17:44;25.80;53.30
5027;DHT22;2532;52.480;13.354;2023-07-20T16:20:11;25.60;52.80
5027;DHT22;2532;52.480;13.354;2023-07-20T16:22:40;25.40;53.00
5027;DHT22;2532;52.480;13.354;2023-07-20T16:25:09;25.20;52.80
5027;DHT22;2532;52.480;13.354;2023-07-20T16:27:36;24.90;52.90
5027;DHT22;2532;52.480;13.354;2023-07-20T16:30:05;24.70;53.50
5027;DHT22;2532;52.480;13.354;2023-07-20T16:32:32;24.60;53.90
5027;DHT22;2532;52.480;13.354;2023-07-20T16:34:59;24.50;54.40
5027;DHT22;2532;52.480;13.354;2023-07-20T16:37:26;24.40;54.70
5027;DHT22;2532;52.480;13.354;2023-07-20T16:39:55;24.20;54.90
5027;DHT22;2532;52.480;13.354;2023-07-20T16:42:21;24.10;55.40
5027;DHT22;2532;52.480;13.354;2023-07-20T16:44:50;24.00;55.60
5027;DHT22;2532;52.480;13.354;2023-07-20T16:47:17;23.90;56.20
5027;DHT22;2532;52.480;13.354;2023-07-20T16:49:44;23.80;56.10
5027;DHT22;2532;52.480;13.354;2023-07-20T16:52:11;23.70;55.90
5027;DHT22;2532;52.480;13.354;2023-07-20T16:54:38;23.70;55.60
5027;DHT22;2532;52.480;13.354;2023-07-20T16:57:07;23.60;57.00
5027;DHT22;2532;52.480;13.354;2023-07-20T16:59:34;23.50;57.90
5027;DHT22;2532;52.480;13.354;2023-07-20T17:02:01;23.40;58.80
5027;DHT22;2532;52.480;13.354;2023-07-20T17:04:28;23.40;59.00
5027;DHT22;2532;52.480;13.354;2023-07-20T17:06:56;23.30;58.60
5027;DHT22;2532;52.480;13.354;2023-07-20T17:09:24;23.40;58.70
5027;DHT22;2532;52.480;13.354;2023-07-20T17:11:51;23.80;58.80
5027;DHT22;2532;52.480;13.354;2023-07-20T17:14:19;24.10;58.60
5027;DHT22;2532;52.480;13.354;2023-07-20T17:16:46;24.40;58.00
5027;DHT22;2532;52.480;13.354;2023-07-20T17:19:13;24.30;57.90
5027;DHT22;2532;52.480;13.354;2023-07-20T17:21:40;24.10;58.20
5027;DHT22;2532;52.480;13.354;2023-07-20T17:24:07;24.30;58.50
5027;DHT22;2532;52.480;13.354;2023-07-20T17:26:36;24.30;57.80
5027;DHT22;2532;52.480;13.354;2023-07-20T17:29:03;24.60;57.70
5027;DHT22;2532;52.480;13.354;2023-07-20T17:31:31;24.60;57.30
5027;DHT22;2532;52.480;13.354;2023-07-20T17:33:58;24.80;57.20
5027;DHT22;2532;52.480;13.354;2023-07-20T17:36:26;24.90;57.30
5027;DHT22;2532;52.480;13.354;2023-07-20T17:38:53;25.00;57.20
5027;DHT22;2532;52.480;13.354;2023-07-20T17:41:20;24.80;56.60
5027;DHT22;2532;52.480;13.354;2023-07-20T17:43:47;24.90;56.80
5027;DHT22;2532;52.480;13.354;2023-07-20T17:46:14;24.80;56.40
5027;DHT22;2532;52.480;13.354;2023-07-20T17:48:42;24.90;56.40
5027;DHT22;2532;52.480;13.354;2023-07-20T17:51:09;24.90;56.10
5027;DHT22;2532;52.480;13.354;2023-07-20T17:53:36;25.10;55.70
5027;DHT22;2532;52.480;13.354;2023-07-20T17:56:04;25.10;55.30
5027;DHT22;2532;52.480;13.354;2023-07-20T17:58:31;25.30;55.10
5027;DHT22;2532;52.480;13.354;2023-07-20T18:00:59;25.40;54.90
5027;DHT22;2532;52.480;13.354;2023-07-20T18:03:26;25.50;54.70
5027;DHT22;2532;52.480;13.354;2023-07-20T18:05:55;25.60;53.70
5027;DHT22;2532;52.480;13.354;2023-07-20T18:08:22;25.50;53.70
5027;DHT22;2532;52.480;13.354;2023-07-20T18:10:51;25.50;53.70
5027;DHT22;2532;52.480;13.354;2023-07-20T18:13:18;25.60;53.60
5027;DHT22;2532;52.480;13.354;2023-07-20T18:15:44;25.50;53.40
5027;DHT22;2532;52.480;13.354;2023-07-20T18:18:11;25.40;53.50
5027;DHT22;2532;52.480;13.354;2023-07-20T18:20:38;25.30;53.70
5027;DHT22;2532;52.480;13.354;2023-07-20T18:23:07;25.20;53.80
5027;DHT22;2532;52.480;13.354;2023-07-20T18:25:34;24.90;54.20
5027;DHT22;2532;52.480;13.354;2023-07-20T18:28:01;24.60;55.00
5027;DHT22;2532;52.480;13.354;2023-07-20T18:30:27;24.40;55.40
5027;DHT22;2532;52.480;13.354;2023-07-20T18:32:58;24.10;55.70
5027;DHT22;2532;52.480;13.354;2023-07-20T18:35:25;23.90;56.40
5027;DHT22;2532;52.480;13.354;2023-07-20T18:37:53;23.50;56.90
5027;DHT22;2532;52.480;13.354;2023-07-20T18:40:22;23.20;57.70
5027;DHT22;2532;52.480;13.354;2023-07-20T18:42:49;23.00;58.30
5027;DHT22;2532;52.480;13.354;2023-07-20T18:45:16;22.80;59.00
5027;DHT22;2532;52.480;13.354;2023-07-20T18:47:43;22.50;59.50
5027;DHT22;2532;52.480;13.354;2023-07-20T18:50:12;22.30;60.00
5027;DHT22;2532;52.480;13.354;2023-07-20T18:52:40;22.20;60.50
5027;DHT22;2532;52.480;13.354;2023-07-20T18:55:08;22.00;60.90
5027;DHT22;2532;52.480;13.354;2023-07-20T18:57:37;21.90;61.50
5027;DHT22;2532;52.480;13.354;2023-07-20T19:00:07;21.90;61.80
5027;DHT22;2532;52.480;13.354;2023-07-20T19:02:35;21.80;62.10
5027;DHT22;2532;52.480;13.354;2023-07-20T19:05:02;21.70;62.40
5027;DHT22;2532;52.480;13.354;2023-07-20T19:07:30;21.60;62.80
5027;DHT22;2532;52.480;13.354;2023-07-20T19:09:57;21.60;63.30
5027;DHT22;2532;52.480;13.354;2023-07-20T19:12:24;21.60;63.40
5027;DHT22;2532;52.480;13.354;2023-07-20T19:14:52;21.50;63.60
5027;DHT22;2532;52.480;13.354;2023-07-20T19:17:19;21.50;63.80
5027;DHT22;2532;52.480;13.354;2023-07-20T19:19:49;21.50;64.10
5027;DHT22;2532;52.480;13.354;2023-07-20T19:22:16;21.40;64.20
5027;DHT22;2532;52.480;13.354;2023-07-20T19:24:43;21.40;64.70
5027;DHT22;2532;52.480;13.354;2023-07-20T19:27:12;21.40;64.90
5027;DHT22;2532;52.480;13.354;2023-07-20T19:29:39;21.40;65.10
5027;DHT22;2532;52.480;13.354;2023-07-20T19:32:08;21.30;65.10
5027;DHT22;2532;52.480;13.354;2023-07-20T19:34:36;21.30;65.30
5027;DHT22;2532;52.480;13.354;2023-07-20T19:37:03;21.30;65.50
5027;DHT22;2532;52.480;13.354;2023-07-20T19:39:30;21.20;65.20
5027;DHT22;2532;52.480;13.354;2023-07-20T19:41:57;21.20;65.50
5027;DHT22;2532;52.480;13.354;2023-07-20T19:44:24;21.10;65.50
5027;DHT22;2532;52.480;13.354;2023-07-20T19:46:52;21.10;65.60
5027;DHT22;2532;52.480;13.354;2023-07-20T19:49:21;21.00;65.80
5027;DHT22;2532;52.480;13.354;2023-07-20T19:51:48;21.00;66.10